sensor_id;sensor_type;location;lat;lon;timestamp;pressure;altitude;pressure_sealevel;temperature
75822;BMP180;64454;51.984;9.838;2023-03-13T00:01:33;99142.00;;;7.90
75822;BMP180;64454;51.984;9.838;2023-03-13T00:04:01;99131.00;;;7.90
75822;BMP180;64454;51.984;9.838;2023-03-13T00:06:30;99133.00;;;8.00
75822;BMP180;64454;51.984;9.838;2023-03-13T00:08:57;99126.00;;;8.10
75822;BMP180;64454;51.984;9.838;2023-03-13T00:11:26;99128.00;;;8.00
75822;BMP180;64454;51.984;9.838;2023-03-13T00:13:54;99119.00;;;8.10
75822;BMP180;64454;51.984;9.838;2023-03-13T00:16:21;99110.00;;;8.20
75822;BMP180;64454;51.984;9.838;2023-03-13T00:18:52;99116.00;;;8.10
75822;BMP180;64454;51.984;9.838;2023-03-13T00:21:22;99110.00;;;8.10
75822;BMP180;64454;51.984;9.838;2023-03-13T00:23:50;99114.00;;;8.20
75822;BMP180;64454;51.984;9.838;2023-03-13T00:26:20;99104.00;;;8.20
75822;BMP180;64454;51.984;9.838;2023-03-13T00:28:47;99094.00;;;8.10
75822;BMP180;64454;51.984;9.838;2023-03-13T00:31:17;99090.00;;;8.10
75822;BMP180;64454;51.984;9.838;2023-03-13T00:33:46;99083.00;;;8.10
75822;BMP180;64454;51.984;9.838;2023-03-13T00:36:18;99080.00;;;8.10
75822;BMP180;64454;51.984;9.838;2023-03-13T00:38:46;99085.00;;;8.10
75822;BMP180;64454;51.984;9.838;2023-03-13T00:41:15;99076.00;;;8.20
75822;BMP180;64454;51.984;9.838;2023-03-13T00:43:43;99079.00;;;8.20
75822;BMP180;64454;51.984;9.838;2023-03-13T00:46:13;99079.00;;;8.20
75822;BMP180;64454;51.984;9.838;2023-03-13T00:48:40;99076.00;;;8.20
75822;BMP180;64454;51.984;9.838;2023-03-13T00:51:08;99078.00;;;8.20
75822;BMP180;64454;51.984;9.838;2023-03-13T00:53:36;99076.00;;;8.20
75822;BMP180;64454;51.984;9.838;2023-03-13T00:56:06;99067.00;;;8.20
75822;BMP180;64454;51.984;9.838;2023-03-13T00:58:36;99068.00;;;8.20
75822;BMP180;64454;51.984;9.838;2023-03-13T01:01:07;99067.00;;;8.20
75822;BMP180;64454;51.984;9.838;2023-03-13T01:03:35;99069.00;;;8.20
75822;BMP180;64454;51.984;9.838;2023-03-13T01:06:06;99065.00;;;8.30
75822;BMP180;64454;51.984;9.838;2023-03-13T01:08:35;99061.00;;;8.20
75822;BMP180;64454;51.984;9.838;2023-03-13T01:11:05;99064.00;;;8.20
75822;BMP180;64454;51.984;9.838;2023-03-13T01:13:33;99054.00;;;8.20
75822;BMP180;64454;51.984;9.838;2023-03-13T01:16:03;99054.00;;;8.20
75822;BMP180;64454;51.984;9.838;2023-03-13T01:18:30;99057.00;;;8.20
75822;BMP180;64454;51.984;9.838;2023-03-13T01:20:57;99052.00;;;8.30
75822;BMP180;64454;51.984;9.838;2023-03-13T01:23:24;99047.00;;;8.30
75822;BMP180;64454;51.984;9.838;2023-03-13T01:25:53;99053.00;;;8.20
75822;BMP180;64454;51.984;9.838;2023-03-13T01:28:21;99040.00;;;8.20
75822;BMP180;64454;51.984;9.838;2023-03-13T01:30:47;99041.00;;;8.30
75822;BMP180;64454;51.984;9.838;2023-03-13T01:33:15;99030.00;;;8.30
75822;BMP180;64454;51.984;9.838;2023-03-13T01:35:42;99034.00;;;8.30
75822;BMP180;64454;51.984;9.838;2023-03-13T01:38:10;99011.00;;;8.40
75822;BMP180;64454;51.984;9.838;2023-03-13T01:40:40;99011.00;;;8.40
75822;BMP180;64454;51.984;9.838;2023-03-13T01:43:21;99013.00;;;8.30
75822;BMP180;64454;51.984;9.838;2023-03-13T01:46:02;99004.00;;;8.40
75822;BMP180;64454;51.984;9.838;2023-03-13T01:48:37;99005.00;;;8.40
75822;BMP180;64454;51.984;9.838;2023-03-13T01:51:09;98984.00;;;8.40
75822;BMP180;64454;51.984;9.838;2023-03-13T01:53:43;98981.00;;;8.40
75822;BMP180;64454;51.984;9.838;2023-03-13T01:56:18;98975.00;;;8.40
75822;BMP180;64454;51.984;9.838;2023-03-13T01:58:49;98962.00;;;8.40
75822;BMP180;64454;51.984;9.838;2023-03-13T02:01:19;98960.00;;;8.50
75822;BMP180;64454;51.984;9.838;2023-03-13T02:03:48;98958.00;;;8.40
75822;BMP180;64454;51.984;9.838;2023-03-13T02:06:16;98953.00;;;8.40
75822;BMP180;64454;51.984;9.838;2023-03-13T02:08:49;98942.00;;;8.40
75822;BMP180;64454;51.984;9.838;2023-03-13T02:11:34;98928.00;;;8.50
75822;BMP180;64454;51.984;9.838;2023-03-13T02:14:04;98930.00;;;8.40
75822;BMP180;64454;51.984;9.838;2023-03-13T02:16:33;98915.00;;;8.50
75822;BMP180;64454;51.984;9.838;2023-03-13T02:19:01;98924.00;;;8.40
75822;BMP180;64454;51.984;9.838;2023-03-13T02:21:42;98914.00;;;8.40
75822;BMP180;64454;51.984;9.838;2023-03-13T02:24:20;98902.00;;;8.60
75822;BMP180;64454;51.984;9.838;2023-03-13T02:26:49;98893.00;;;8.50
75822;BMP180;64454;51.984;9.838;2023-03-13T02:29:18;98889.00;;;8.50
75822;BMP180;64454;51.984;9.838;2023-03-13T02:31:47;98888.00;;;8.50
75822;BMP180;64454;51.984;9.838;2023-03-13T02:34:21;98889.00;;;8.40
75822;BMP180;64454;51.984;9.838;2023-03-13T02:36:51;98890.00;;;8.40
75822;BMP180;64454;51.984;9.838;2023-03-13T02:39:22;98881.00;;;8.50
75822;BMP180;64454;51.984;9.838;2023-03-13T02:41:52;98866.00;;;8.70
75822;BMP180;64454;51.984;9.838;2023-03-13T02:44:21;98865.00;;;8.50
75822;BMP180;64454;51.984;9.838;2023-03-13T02:46:50;98859.00;;;8.50
75822;BMP180;64454;51.984;9.838;2023-03-13T02:49:24;98847.00;;;8.50
75822;BMP180;64454;51.984;9.838;2023-03-13T02:51:54;98844.00;;;8.60
75822;BMP180;64454;51.984;9.838;2023-03-13T02:54:27;98835.00;;;8.50
75822;BMP180;64454;51.984;9.838;2023-03-13T02:56:59;98835.00;;;8.50
75822;BMP180;64454;51.984;9.838;2023-03-13T02:59:26;98824.00;;;8.50
75822;BMP180;64454;51.984;9.838;2023-03-13T03:01:54;98822.00;;;8.40
75822;BMP180;64454;51.984;9.838;2023-03-13T03:04:23;98812.00;;;8.40
75822;BMP180;64454;51.984;9.838;2023-03-13T03:06:52;98802.00;;;8.40
75822;BMP180;64454;51.984;9.838;2023-03-13T03:09:21;98807.00;;;8.40
75822;BMP180;64454;51.984;9.838;2023-03-13T03:11:48;98794.00;;;8.50
75822;BMP180;64454;51.984;9.838;2023-03-13T03:14:19;98784.00;;;8.40
75822;BMP180;64454;51.984;9.838;2023-03-13T03:16:47;98770.00;;;8.50
75822;BMP180;64454;51.984;9.838;2023-03-13T03:19:16;98768.00;;;8.40
75822;BMP180;64454;51.984;9.838;2023-03-13T03:21:44;98761.00;;;8.30
75822;BMP180;64454;51.984;9.838;2023-03-13T03:24:14;98736.00;;;8.30
75822;BMP180;64454;51.984;9.838;2023-03-13T03:26:41;98726.00;;;8.30
75822;BMP180;64454;51.984;9.838;2023-03-13T03:29:08;98720.00;;;8.30
75822;BMP180;64454;51.984;9.838;2023-03-13T03:31:36;98725.00;;;8.30
75822;BMP180;64454;51.984;9.838;2023-03-13T03:34:03;98720.00;;;8.30
75822;BMP180;64454;51.984;9.838;2023-03-13T03:36:30;98708.00;;;8.30
75822;BMP180;64454;51.984;9.838;2023-03-13T03:38:57;98701.00;;;8.30
75822;BMP180;64454;51.984;9.838;2023-03-13T03:41:24;98692.00;;;8.30
75822;BMP180;64454;51.984;9.838;2023-03-13T03:43:51;98700.00;;;8.30
75822;BMP180;64454;51.984;9.838;2023-03-13T03:46:17;98693.00;;;8.30
75822;BMP180;64454;51.984;9.838;2023-03-13T03:48:46;98696.00;;;8.30
75822;BMP180;64454;51.984;9.838;2023-03-13T03:51:13;98678.00;;;8.30
75822;BMP180;64454;51.984;9.838;2023-03-13T03:53:39;98681.00;;;8.30
75822;BMP180;64454;51.984;9.838;2023-03-13T03:56:07;98674.00;;;8.30
75822;BMP180;64454;51.984;9.838;2023-03-13T03:58:33;98673.00;;;8.40
75822;BMP180;64454;51.984;9.838;2023-03-13T04:01:00;98665.00;;;8.50
75822;BMP180;64454;51.984;9.838;2023-03-13T04:03:27;98666.00;;;8.50
75822;BMP180;64454;51.984;9.838;2023-03-13T04:05:55;98667.00;;;8.50
75822;BMP180;64454;51.984;9.838;2023-03-13T04:08:22;98660.00;;;8.50
75822;BMP180;64454;51.984;9.838;2023-03-13T04:10:49;98656.00;;;8.40
75822;BMP180;64454;51.984;9.838;2023-03-13T04:13:16;98648.00;;;8.50
75822;BMP180;64454;51.984;9.838;2023-03-13T04:15:43;98633.00;;;8.40
75822;BMP180;64454;51.984;9.838;2023-03-13T04:18:10;98636.00;;;8.50
75822;BMP180;64454;51.984;9.838;2023-03-13T04:20:37;98638.00;;;8.40
75822;BMP180;64454;51.984;9.838;2023-03-13T04:23:05;98641.00;;;8.40
75822;BMP180;64454;51.984;9.838;2023-03-13T04:25:31;98642.00;;;8.40
75822;BMP180;64454;51.984;9.838;2023-03-13T04:27:58;98662.00;;;8.50
75822;BMP180;64454;51.984;9.838;2023-03-13T04:30:25;98648.00;;;8.30
75822;BMP180;64454;51.984;9.838;2023-03-13T04:32:52;98656.00;;;8.30
75822;BMP180;64454;51.984;9.838;2023-03-13T04:35:19;98645.00;;;8.30
75822;BMP180;64454;51.984;9.838;2023-03-13T04:37:46;98643.00;;;8.10
75822;BMP180;64454;51.984;9.838;2023-03-13T04:40:14;98633.00;;;8.10
75822;BMP180;64454;51.984;9.838;2023-03-13T04:42:41;98622.00;;;8.00
75822;BMP180;64454;51.984;9.838;2023-03-13T04:45:10;98631.00;;;8.00
75822;BMP180;64454;51.984;9.838;2023-03-13T04:47:37;98605.00;;;8.00
75822;BMP180;64454;51.984;9.838;2023-03-13T04:50:05;98604.00;;;8.00
75822;BMP180;64454;51.984;9.838;2023-03-13T04:52:32;98597.00;;;8.00
75822;BMP180;64454;51.984;9.838;2023-03-13T04:54:59;98608.00;;;8.00
75822;BMP180;64454;51.984;9.838;2023-03-13T04:57:27;98601.00;;;8.00
75822;BMP180;64454;51.984;9.838;2023-03-13T04:59:54;98591.00;;;8.10
75822;BMP180;64454;51.984;9.838;2023-03-13T05:02:20;98591.00;;;8.10
75822;BMP180;64454;51.984;9.838;2023-03-13T05:04:47;98586.00;;;8.10
75822;BMP180;64454;51.984;9.838;2023-03-13T05:07:14;98569.00;;;8.20
75822;BMP180;64454;51.984;9.838;2023-03-13T05:09:41;98552.00;;;8.10
75822;BMP180;64454;51.984;9.838;2023-03-13T05:12:08;98547.00;;;8.20
75822;BMP180;64454;51.984;9.838;2023-03-13T05:14:36;98535.00;;;8.20
75822;BMP180;64454;51.984;9.838;2023-03-13T05:17:03;98554.00;;;8.30
75822;BMP180;64454;51.984;9.838;2023-03-13T05:19:29;98560.00;;;8.30
75822;BMP180;64454;51.984;9.838;2023-03-13T05:21:56;98559.00;;;8.30
75822;BMP180;64454;51.984;9.838;2023-03-13T05:24:23;98555.00;;;8.30
75822;BMP180;64454;51.984;9.838;2023-03-13T05:26:50;98545.00;;;8.20
75822;BMP180;64454;51.984;9.838;2023-03-13T05:29:19;98548.00;;;8.30
75822;BMP180;64454;51.984;9.838;2023-03-13T05:31:47;98551.00;;;8.30
75822;BMP180;64454;51.984;9.838;2023-03-13T05:34:14;98544.00;;;8.40
75822;BMP180;64454;51.984;9.838;2023-03-13T05:36:41;98540.00;;;8.40
75822;BMP180;64454;51.984;9.838;2023-03-13T05:39:08;98536.00;;;8.40
75822;BMP180;64454;51.984;9.838;2023-03-13T05:41:35;98517.00;;;8.40
75822;BMP180;64454;51.984;9.838;2023-03-13T05:44:02;98520.00;;;8.40
75822;BMP180;64454;51.984;9.838;2023-03-13T05:46:29;98518.00;;;8.40
75822;BMP180;64454;51.984;9.838;2023-03-13T05:48:57;98520.00;;;8.50
75822;BMP180;64454;51.984;9.838;2023-03-13T05:51:24;98508.00;;;8.50
75822;BMP180;64454;51.984;9.838;2023-03-13T05:53:50;98510.00;;;8.60
75822;BMP180;64454;51.984;9.838;2023-03-13T05:56:17;98513.00;;;8.70
75822;BMP180;64454;51.984;9.838;2023-03-13T05:58:44;98505.00;;;8.70
75822;BMP180;64454;51.984;9.838;2023-03-13T06:01:12;98510.00;;;8.70
75822;BMP180;64454;51.984;9.838;2023-03-13T06:03:39;98515.00;;;8.80
75822;BMP180;64454;51.984;9.838;2023-03-13T06:06:07;98502.00;;;8.90
75822;BMP180;64454;51.984;9.838;2023-03-13T06:08:34;98518.00;;;8.80
75822;BMP180;64454;51.984;9.838;2023-03-13T06:11:02;98501.00;;;8.90
75822;BMP180;64454;51.984;9.838;2023-03-13T06:13:29;98503.00;;;8.90
75822;BMP180;64454;51.984;9.838;2023-03-13T06:15:57;98502.00;;;8.80
75822;BMP180;64454;51.984;9.838;2023-03-13T06:18:25;98493.00;;;8.80
75822;BMP180;64454;51.984;9.838;2023-03-13T06:20:57;98483.00;;;8.90
75822;BMP180;64454;51.984;9.838;2023-03-13T06:23:25;98484.00;;;8.80
75822;BMP180;64454;51.984;9.838;2023-03-13T06:25:52;98492.00;;;8.80
75822;BMP180;64454;51.984;9.838;2023-03-13T06:28:19;98497.00;;;8.80
75822;BMP180;64454;51.984;9.838;2023-03-13T06:30:46;98495.00;;;8.90
75822;BMP180;64454;51.984;9.838;2023-03-13T06:33:13;98476.00;;;8.90
75822;BMP180;64454;51.984;9.838;2023-03-13T06:35:41;98475.00;;;8.90
75822;BMP180;64454;51.984;9.838;2023-03-13T06:38:09;98466.00;;;9.00
75822;BMP180;64454;51.984;9.838;2023-03-13T06:40:37;98498.00;;;8.90
75822;BMP180;64454;51.984;9.838;2023-03-13T06:43:04;98474.00;;;9.00
75822;BMP180;64454;51.984;9.838;2023-03-13T06:45:31;98456.00;;;9.00
75822;BMP180;64454;51.984;9.838;2023-03-13T06:48:00;98464.00;;;9.00
75822;BMP180;64454;51.984;9.838;2023-03-13T06:50:26;98477.00;;;9.10
75822;BMP180;64454;51.984;9.838;2023-03-13T06:52:53;98481.00;;;9.10
75822;BMP180;64454;51.984;9.838;2023-03-13T06:55:22;98472.00;;;9.20
75822;BMP180;64454;51.984;9.838;2023-03-13T06:57:51;98467.00;;;9.20
75822;BMP180;64454;51.984;9.838;2023-03-13T07:00:19;98477.00;;;9.30
75822;BMP180;64454;51.984;9.838;2023-03-13T07:02:46;98482.00;;;9.40
75822;BMP180;64454;51.984;9.838;2023-03-13T07:05:13;98486.00;;;9.30
75822;BMP180;64454;51.984;9.838;2023-03-13T07:07:40;98470.00;;;9.40
75822;BMP180;64454;51.984;9.838;2023-03-13T07:10:09;98466.00;;;9.30
75822;BMP180;64454;51.984;9.838;2023-03-13T07:12:36;98481.00;;;9.40
75822;BMP180;64454;51.984;9.838;2023-03-13T07:15:06;98479.00;;;9.40
75822;BMP180;64454;51.984;9.838;2023-03-13T07:17:32;98487.00;;;9.40
75822;BMP180;64454;51.984;9.838;2023-03-13T07:19:59;98480.00;;;9.60
75822;BMP180;64454;51.984;9.838;2023-03-13T07:22:26;98468.00;;;9.50
75822;BMP180;64454;51.984;9.838;2023-03-13T07:24:53;98475.00;;;9.60
75822;BMP180;64454;51.984;9.838;2023-03-13T07:27:20;98469.00;;;9.60
75822;BMP180;64454;51.984;9.838;2023-03-13T07:29:47;98467.00;;;9.70
75822;BMP180;64454;51.984;9.838;2023-03-13T07:32:15;98463.00;;;9.60
75822;BMP180;64454;51.984;9.838;2023-03-13T07:34:42;98463.00;;;9.70
75822;BMP180;64454;51.984;9.838;2023-03-13T07:37:09;98474.00;;;9.80
75822;BMP180;64454;51.984;9.838;2023-03-13T07:39:36;98485.00;;;9.80
75822;BMP180;64454;51.984;9.838;2023-03-13T07:42:03;98488.00;;;9.90
75822;BMP180;64454;51.984;9.838;2023-03-13T07:44:30;98477.00;;;10.00
75822;BMP180;64454;51.984;9.838;2023-03-13T07:46:59;98485.00;;;9.90
75822;BMP180;64454;51.984;9.838;2023-03-13T07:49:27;98475.00;;;10.00
75822;BMP180;64454;51.984;9.838;2023-03-13T07:51:54;98476.00;;;9.90
75822;BMP180;64454;51.984;9.838;2023-03-13T07:54:22;98504.00;;;10.10
75822;BMP180;64454;51.984;9.838;2023-03-13T07:56:48;98487.00;;;10.10
75822;BMP180;64454;51.984;9.838;2023-03-13T07:59:18;98484.00;;;10.20
75822;BMP180;64454;51.984;9.838;2023-03-13T08:01:46;98491.00;;;10.20
75822;BMP180;64454;51.984;9.838;2023-03-13T08:04:13;98490.00;;;10.10
75822;BMP180;64454;51.984;9.838;2023-03-13T08:06:41;98498.00;;;10.10
75822;BMP180;64454;51.984;9.838;2023-03-13T08:09:08;98499.00;;;10.20
75822;BMP180;64454;51.984;9.838;2023-03-13T08:11:38;98497.00;;;10.20
75822;BMP180;64454;51.984;9.838;2023-03-13T08:14:06;98492.00;;;10.10
75822;BMP180;64454;51.984;9.838;2023-03-13T08:16:34;98488.00;;;10.20
75822;BMP180;64454;51.984;9.838;2023-03-13T08:19:03;98482.00;;;10.20
75822;BMP180;64454;51.984;9.838;2023-03-13T08:21:33;98480.00;;;10.10
75822;BMP180;64454;51.984;9.838;2023-03-13T08:24:04;98476.00;;;10.30
75822;BMP180;64454;51.984;9.838;2023-03-13T08:26:35;98479.00;;;10.20
75822;BMP180;64454;51.984;9.838;2023-03-13T08:29:05;98464.00;;;10.30
75822;BMP180;64454;51.984;9.838;2023-03-13T08:31:35;98478.00;;;10.40
75822;BMP180;64454;51.984;9.838;2023-03-13T08:34:02;98474.00;;;10.50
75822;BMP180;64454;51.984;9.838;2023-03-13T08:36:32;98464.00;;;10.40
75822;BMP180;64454;51.984;9.838;2023-03-13T08:39:04;98462.00;;;10.60
75822;BMP180;64454;51.984;9.838;2023-03-13T08:41:33;98467.00;;;10.60
75822;BMP180;64454;51.984;9.838;2023-03-13T08:44:02;98464.00;;;10.80
75822;BMP180;64454;51.984;9.838;2023-03-13T08:46:32;98452.00;;;10.90
75822;BMP180;64454;51.984;9.838;2023-03-13T08:48:59;98457.00;;;11.00
75822;BMP180;64454;51.984;9.838;2023-03-13T08:51:27;98450.00;;;11.10
75822;BMP180;64454;51.984;9.838;2023-03-13T08:53:55;98442.00;;;11.20
75822;BMP180;64454;51.984;9.838;2023-03-13T08:56:25;98444.00;;;11.20
75822;BMP180;64454;51.984;9.838;2023-03-13T08:58:55;98445.00;;;11.10
75822;BMP180;64454;51.984;9.838;2023-03-13T09:01:25;98429.00;;;11.30
75822;BMP180;64454;51.984;9.838;2023-03-13T09:03:52;98439.00;;;11.40
75822;BMP180;64454;51.984;9.838;2023-03-13T09:06:19;98419.00;;;11.30
75822;BMP180;64454;51.984;9.838;2023-03-13T09:08:46;98397.00;;;11.40
75822;BMP180;64454;51.984;9.838;2023-03-13T09:11:16;98404.00;;;11.60
75822;BMP180;64454;51.984;9.838;2023-03-13T09:13:46;98412.00;;;11.80
75822;BMP180;64454;51.984;9.838;2023-03-13T09:16:16;98410.00;;;11.90
75822;BMP180;64454;51.984;9.838;2023-03-13T09:18:43;98405.00;;;11.90
75822;BMP180;64454;51.984;9.838;2023-03-13T09:21:14;98397.00;;;11.90
75822;BMP180;64454;51.984;9.838;2023-03-13T09:23:41;98395.00;;;12.10
75822;BMP180;64454;51.984;9.838;2023-03-13T09:26:08;98379.00;;;12.10
75822;BMP180;64454;51.984;9.838;2023-03-13T09:28:36;98384.00;;;12.20
75822;BMP180;64454;51.984;9.838;2023-03-13T09:31:09;98388.00;;;12.10
75822;BMP180;64454;51.984;9.838;2023-03-13T09:33:37;98375.00;;;12.10
75822;BMP180;64454;51.984;9.838;2023-03-13T09:36:05;98371.00;;;12.20
75822;BMP180;64454;51.984;9.838;2023-03-13T09:38:32;98367.00;;;12.20
75822;BMP180;64454;51.984;9.838;2023-03-13T09:41:06;98372.00;;;12.20
75822;BMP180;64454;51.984;9.838;2023-03-13T09:43:45;98345.00;;;12.60
75822;BMP180;64454;51.984;9.838;2023-03-13T09:46:22;98354.00;;;12.70
75822;BMP180;64454;51.984;9.838;2023-03-13T09:48:56;98350.00;;;12.70
75822;BMP180;64454;51.984;9.838;2023-03-13T09:51:28;98362.00;;;12.90
75822;BMP180;64454;51.984;9.838;2023-03-13T09:54:00;98343.00;;;12.80
75822;BMP180;64454;51.984;9.838;2023-03-13T09:56:33;98352.00;;;12.80
75822;BMP180;64454;51.984;9.838;2023-03-13T09:59:14;98350.00;;;12.90
75822;BMP180;64454;51.984;9.838;2023-03-13T10:01:46;98341.00;;;13.00
75822;BMP180;64454;51.984;9.838;2023-03-13T10:04:28;98343.00;;;13.10
75822;BMP180;64454;51.984;9.838;2023-03-13T10:06:56;98377.00;;;13.30
75822;BMP180;64454;51.984;9.838;2023-03-13T10:09:28;98338.00;;;13.40
75822;BMP180;64454;51.984;9.838;2023-03-13T10:12:05;98337.00;;;13.40
75822;BMP180;64454;51.984;9.838;2023-03-13T10:14:42;98354.00;;;13.40
75822;BMP180;64454;51.984;9.838;2023-03-13T10:17:21;98347.00;;;13.40
75822;BMP180;64454;51.984;9.838;2023-03-13T10:19:59;98361.00;;;13.40
75822;BMP180;64454;51.984;9.838;2023-03-13T10:22:30;98365.00;;;13.40
75822;BMP180;64454;51.984;9.838;2023-03-13T10:25:02;98354.00;;;13.40
75822;BMP180;64454;51.984;9.838;2023-03-13T10:27:41;98359.00;;;13.40
75822;BMP180;64454;51.984;9.838;2023-03-13T10:30:27;98354.00;;;13.50
75822;BMP180;64454;51.984;9.838;2023-03-13T10:33:18;98368.00;;;13.40
75822;BMP180;64454;51.984;9.838;2023-03-13T10:35:45;98370.00;;;13.40
75822;BMP180;64454;51.984;9.838;2023-03-13T10:38:14;98369.00;;;13.30
75822;BMP180;64454;51.984;9.838;2023-03-13T10:40:55;98366.00;;;13.30
75822;BMP180;64454;51.984;9.838;2023-03-13T10:43:25;98365.00;;;13.40
75822;BMP180;64454;51.984;9.838;2023-03-13T10:45:53;98377.00;;;13.40
75822;BMP180;64454;51.984;9.838;2023-03-13T10:48:24;98390.00;;;13.40
75822;BMP180;64454;51.984;9.838;2023-03-13T10:50:54;98359.00;;;13.30
75822;BMP180;64454;51.984;9.838;2023-03-13T10:53:30;98363.00;;;13.20
75822;BMP180;64454;51.984;9.838;2023-03-13T10:56:08;98361.00;;;13.60
75822;BMP180;64454;51.984;9.838;2023-03-13T10:58:41;98350.00;;;14.00
75822;BMP180;64454;51.984;9.838;2023-03-13T11:01:16;98339.00;;;14.80
75822;BMP180;64454;51.984;9.838;2023-03-13T11:03:47;98333.00;;;14.80
75822;BMP180;64454;51.984;9.838;2023-03-13T11:06:27;98330.00;;;15.30
75822;BMP180;64454;51.984;9.838;2023-03-13T11:09:03;98330.00;;;15.60
75822;BMP180;64454;51.984;9.838;2023-03-13T11:11:44;98303.00;;;15.40
75822;BMP180;64454;51.984;9.838;2023-03-13T11:14:18;98320.00;;;15.00
75822;BMP180;64454;51.984;9.838;2023-03-13T11:16:49;98332.00;;;15.20
75822;BMP180;64454;51.984;9.838;2023-03-13T11:19:33;98334.00;;;14.70
75822;BMP180;64454;51.984;9.838;2023-03-13T11:22:17;98325.00;;;14.70
75822;BMP180;64454;51.984;9.838;2023-03-13T11:24:59;98328.00;;;14.60
75822;BMP180;64454;51.984;9.838;2023-03-13T11:27:35;98320.00;;;14.40
75822;BMP180;64454;51.984;9.838;2023-03-13T11:30:19;98317.00;;;14.50
75822;BMP180;64454;51.984;9.838;2023-03-13T11:32:55;98318.00;;;15.00
75822;BMP180;64454;51.984;9.838;2023-03-13T11:35:38;98325.00;;;14.80
75822;BMP180;64454;51.984;9.838;2023-03-13T11:38:14;98322.00;;;14.60
75822;BMP180;64454;51.984;9.838;2023-03-13T11:40:53;98335.00;;;14.70
75822;BMP180;64454;51.984;9.838;2023-03-13T11:43:42;98321.00;;;14.60
75822;BMP180;64454;51.984;9.838;2023-03-13T11:46:27;98308.00;;;14.90
75822;BMP180;64454;51.984;9.838;2023-03-13T11:49:38;98315.00;;;15.00
75822;BMP180;64454;51.984;9.838;2023-03-13T11:52:22;98305.00;;;14.90
75822;BMP180;64454;51.984;9.838;2023-03-13T11:55:09;98322.00;;;15.00
75822;BMP180;64454;51.984;9.838;2023-03-13T11:57:51;98305.00;;;15.10
75822;BMP180;64454;51.984;9.838;2023-03-13T12:00:30;98304.00;;;15.00
75822;BMP180;64454;51.984;9.838;2023-03-13T12:03:05;98289.00;;;15.00
75822;BMP180;64454;51.984;9.838;2023-03-13T12:05:43;98292.00;;;14.90
75822;BMP180;64454;51.984;9.838;2023-03-13T12:08:18;98296.00;;;15.30
75822;BMP180;64454;51.984;9.838;2023-03-13T12:11:05;98281.00;;;16.00
75822;BMP180;64454;51.984;9.838;2023-03-13T12:13:39;98285.00;;;16.20
75822;BMP180;64454;51.984;9.838;2023-03-13T12:16:14;98313.00;;;15.90
75822;BMP180;64454;51.984;9.838;2023-03-13T12:18:45;98281.00;;;16.00
75822;BMP180;64454;51.984;9.838;2023-03-13T12:21:18;98283.00;;;16.20
75822;BMP180;64454;51.984;9.838;2023-03-13T12:23:57;98313.00;;;15.90
75822;BMP180;64454;51.984;9.838;2023-03-13T12:26:36;98290.00;;;15.90
75822;BMP180;64454;51.984;9.838;2023-03-13T12:29:15;98257.00;;;15.90
75822;BMP180;64454;51.984;9.838;2023-03-13T12:31:53;98265.00;;;15.90
75822;BMP180;64454;51.984;9.838;2023-03-13T12:34:27;98259.00;;;16.20
75822;BMP180;64454;51.984;9.838;2023-03-13T12:37:09;98249.00;;;16.30
75822;BMP180;64454;51.984;9.838;2023-03-13T12:39:42;98241.00;;;16.70
75822;BMP180;64454;51.984;9.838;2023-03-13T12:42:30;98230.00;;;16.60
75822;BMP180;64454;51.984;9.838;2023-03-13T12:44:59;98228.00;;;16.70
75822;BMP180;64454;51.984;9.838;2023-03-13T12:47:32;98267.00;;;16.80
75822;BMP180;64454;51.984;9.838;2023-03-13T12:50:27;98210.00;;;16.50
75822;BMP180;64454;51.984;9.838;2023-03-13T12:56:46;98200.00;;;16.60
75822;BMP180;64454;51.984;9.838;2023-03-13T12:59:22;98210.00;;;16.50
75822;BMP180;64454;51.984;9.838;2023-03-13T13:01:53;98173.00;;;17.00
75822;BMP180;64454;51.984;9.838;2023-03-13T13:04:24;98199.00;;;17.40
75822;BMP180;64454;51.984;9.838;2023-03-13T13:06:58;98214.00;;;17.40
75822;BMP180;64454;51.984;9.838;2023-03-13T13:09:29;98159.00;;;18.50
75822;BMP180;64454;51.984;9.838;2023-03-13T13:12:01;98188.00;;;18.90
75822;BMP180;64454;51.984;9.838;2023-03-13T13:15:02;98163.00;;;19.80
75822;BMP180;64454;51.984;9.838;2023-03-13T13:18:02;98150.00;;;21.50
75822;BMP180;64454;51.984;9.838;2023-03-13T13:20:47;98166.00;;;20.90
75822;BMP180;64454;51.984;9.838;2023-03-13T13:23:34;98143.00;;;20.90
75822;BMP180;64454;51.984;9.838;2023-03-13T13:26:46;98143.00;;;20.40
75822;BMP180;64454;51.984;9.838;2023-03-13T13:29:58;98138.00;;;19.70
75822;BMP180;64454;51.984;9.838;2023-03-13T13:32:44;98131.00;;;20.50
75822;BMP180;64454;51.984;9.838;2023-03-13T13:35:28;98154.00;;;20.00
75822;BMP180;64454;51.984;9.838;2023-03-13T13:38:35;98139.00;;;21.00
75822;BMP180;64454;51.984;9.838;2023-03-13T13:41:35;98135.00;;;20.60
75822;BMP180;64454;51.984;9.838;2023-03-13T13:44:24;98119.00;;;20.40
75822;BMP180;64454;51.984;9.838;2023-03-13T13:46:55;98118.00;;;20.50
75822;BMP180;64454;51.984;9.838;2023-03-13T13:49:31;98144.00;;;20.00
75822;BMP180;64454;51.984;9.838;2023-03-13T13:52:35;98130.00;;;20.20
75822;BMP180;64454;51.984;9.838;2023-03-13T13:55:30;98108.00;;;19.90
75822;BMP180;64454;51.984;9.838;2023-03-13T13:58:03;98122.00;;;20.10
75822;BMP180;64454;51.984;9.838;2023-03-13T14:00:39;98133.00;;;20.10
75822;BMP180;64454;51.984;9.838;2023-03-13T14:03:22;98111.00;;;20.40
75822;BMP180;64454;51.984;9.838;2023-03-13T14:05:52;98104.00;;;21.00
75822;BMP180;64454;51.984;9.838;2023-03-13T14:08:26;98104.00;;;22.10
75822;BMP180;64454;51.984;9.838;2023-03-13T14:11:13;98110.00;;;21.40
75822;BMP180;64454;51.984;9.838;2023-03-13T14:14:12;98116.00;;;21.10
75822;BMP180;64454;51.984;9.838;2023-03-13T14:16:43;98114.00;;;21.00
75822;BMP180;64454;51.984;9.838;2023-03-13T14:19:24;98124.00;;;19.00
75822;BMP180;64454;51.984;9.838;2023-03-13T14:21:58;98106.00;;;20.10
75822;BMP180;64454;51.984;9.838;2023-03-13T14:24:26;98087.00;;;20.20
75822;BMP180;64454;51.984;9.838;2023-03-13T14:26:52;98084.00;;;21.90
75822;BMP180;64454;51.984;9.838;2023-03-13T14:29:20;98100.00;;;21.00
75822;BMP180;64454;51.984;9.838;2023-03-13T14:31:52;98112.00;;;20.00
75822;BMP180;64454;51.984;9.838;2023-03-13T14:34:22;98088.00;;;20.30
75822;BMP180;64454;51.984;9.838;2023-03-13T14:36:51;98102.00;;;19.30
75822;BMP180;64454;51.984;9.838;2023-03-13T14:39:27;98100.00;;;17.60
75822;BMP180;64454;51.984;9.838;2023-03-13T14:42:03;98101.00;;;17.50
75822;BMP180;64454;51.984;9.838;2023-03-13T14:44:33;98130.00;;;17.90
75822;BMP180;64454;51.984;9.838;2023-03-13T14:47:05;98112.00;;;17.60